createdAt,value
2018-08-17T00:02:23.473Z,21.30
2018-08-17T00:04:50.504Z,21.10
2018-08-17T00:07:17.465Z,21.10
2018-08-17T00:09:44.381Z,21.00
2018-08-17T00:12:11.681Z,21.00
2018-08-17T00:14:38.638Z,21.00
2018-08-17T00:17:05.589Z,20.90
2018-08-17T00:19:32.572Z,20.90
2018-08-17T00:51:26.589Z,20.90
2018-08-17T00:53:53.530Z,20.20
2018-08-17T01:01:14.672Z,20.10
2018-08-17T01:03:41.684Z,20.00
2018-08-17T01:06:08.727Z,19.90
2018-08-17T01:08:35.698Z,19.90
2018-08-17T01:11:02.718Z,19.80
2018-08-17T01:13:29.706Z,19.80
2018-08-17T01:15:56.737Z,19.70
2018-08-17T01:18:24.128Z,19.70
2018-08-17T01:20:51.147Z,19.70
2018-08-17T01:23:18.097Z,19.60
2018-08-17T01:25:45.111Z,19.50
2018-08-17T01:28:12.116Z,19.60
2018-08-17T01:30:39.130Z,19.50
2018-08-17T01:33:06.221Z,19.50
2018-08-17T01:35:33.291Z,19.50
2018-08-17T01:38:00.316Z,19.50
2018-08-17T01:40:27.556Z,19.40
2018-08-17T01:42:54.528Z,19.40
2018-08-17T01:45:21.590Z,19.40
2018-08-17T01:47:48.877Z,19.40
2018-08-17T01:50:15.861Z,19.30
2018-08-17T01:52:42.943Z,19.20
2018-08-17T01:55:10.923Z,19.20
2018-08-17T01:57:37.984Z,19.20
2018-08-17T02:00:06.647Z,19.20
2018-08-17T02:02:34.008Z,19.10
2018-08-17T02:05:01.025Z,19.10
2018-08-17T02:07:28.013Z,19.00
2018-08-17T02:09:55.022Z,19.00
2018-08-17T02:12:22.772Z,19.00
2018-08-17T02:14:49.882Z,18.90
2018-08-17T02:17:17.202Z,18.90
2018-08-17T02:19:44.239Z,18.90
2018-08-17T02:22:11.295Z,18.90
2018-08-17T02:24:38.277Z,18.80
2018-08-17T02:27:05.489Z,18.80
2018-08-17T02:29:32.729Z,18.80
2018-08-17T02:31:59.977Z,18.80
2018-08-17T02:34:27.053Z,18.70
2018-08-17T02:36:54.351Z,18.70
2018-08-17T02:39:21.366Z,18.70
2018-08-17T02:41:48.379Z,18.70
2018-08-17T02:44:15.361Z,18.60
2018-08-17T02:46:42.375Z,18.60
2018-08-17T02:49:09.403Z,18.60
2018-08-17T02:51:36.388Z,18.60
2018-08-17T02:54:03.332Z,18.60
2018-08-17T02:56:30.370Z,18.60
2018-08-17T02:58:57.465Z,18.60
2018-08-17T03:01:24.558Z,18.60
2018-08-17T03:03:51.529Z,18.60
2018-08-17T03:06:18.497Z,18.60
2018-08-17T03:08:45.458Z,18.50
2018-08-17T03:11:12.493Z,18.40
2018-08-17T03:13:39.499Z,18.40
2018-08-17T03:16:06.569Z,18.40
2018-08-17T03:18:33.607Z,18.30
2018-08-17T03:21:00.686Z,18.30
2018-08-17T03:23:27.732Z,18.30
2018-08-17T03:25:54.690Z,18.20
2018-08-17T03:28:21.748Z,18.20
2018-08-17T03:30:49.070Z,18.20
2018-08-17T03:33:16.054Z,18.20
2018-08-17T03:35:43.008Z,18.20
2018-08-17T03:38:10.031Z,18.10
2018-08-17T03:40:36.982Z,18.10
2018-08-17T03:43:03.977Z,18.10
2018-08-17T03:45:31.010Z,18.10
2018-08-17T03:47:58.040Z,18.00
2018-08-17T03:50:25.065Z,18.00
2018-08-17T03:52:52.044Z,18.00
2018-08-17T03:55:19.033Z,18.00
2018-08-17T03:57:46.021Z,18.00
2018-08-17T04:00:13.041Z,18.00
2018-08-17T04:02:40.432Z,18.00
2018-08-17T04:05:07.468Z,18.00
2018-08-17T04:07:34.511Z,18.00
2018-08-17T04:10:01.505Z,18.00
2018-08-17T04:12:28.522Z,17.90
2018-08-17T04:14:55.945Z,18.00
2018-08-17T04:17:23.012Z,18.00
2018-08-17T04:19:50.179Z,18.00
2018-08-17T04:22:17.238Z,18.00
2018-08-17T04:24:44.319Z,18.00
2018-08-17T04:27:11.291Z,18.10
2018-08-17T04:29:38.318Z,18.10
2018-08-17T04:32:05.526Z,18.10
2018-08-17T04:34:32.490Z,18.10
2018-08-17T04:36:59.502Z,18.20
2018-08-17T04:39:26.465Z,18.20
2018-08-17T04:41:53.412Z,18.20
2018-08-17T04:44:20.386Z,18.20
2018-08-17T04:46:47.407Z,18.30
2018-08-17T04:49:14.768Z,18.30
2018-08-17T04:51:41.754Z,18.40
2018-08-17T04:54:08.725Z,18.40
2018-08-17T04:56:35.796Z,18.50
2018-08-17T04:59:02.765Z,18.50
2018-08-17T05:01:29.802Z,18.50
2018-08-17T05:03:56.791Z,18.60
2018-08-17T05:06:23.735Z,18.70
2018-08-17T05:08:50.738Z,18.80
2018-08-17T05:11:17.706Z,18.80
2018-08-17T05:13:44.634Z,19.00
2018-08-17T05:16:11.642Z,19.10
2018-08-17T05:18:39.106Z,19.10
2018-08-17T05:21:06.046Z,19.20
2018-08-17T05:23:33.021Z,19.40
2018-08-17T05:26:00.014Z,19.60
2018-08-17T05:28:27.029Z,19.80
2018-08-17T05:30:54.034Z,19.90
2018-08-17T05:33:21.006Z,19.90
2018-08-17T05:35:47.973Z,20.00
2018-08-17T05:38:14.907Z,20.10
2018-08-17T05:40:42.180Z,20.10
2018-08-17T05:43:09.150Z,20.40
2018-08-17T05:45:36.090Z,20.40
2018-08-17T05:48:03.076Z,20.70
2018-08-17T05:50:32.492Z,20.80
2018-08-17T05:52:59.685Z,20.90
2018-08-17T05:55:27.117Z,20.80
2018-08-17T05:57:54.134Z,21.00
2018-08-17T06:00:21.099Z,21.10
2018-08-17T06:02:48.214Z,21.10
2018-08-17T06:05:15.204Z,21.20
2018-08-17T06:07:42.150Z,21.40
2018-08-17T06:10:09.353Z,21.70
2018-08-17T06:12:36.341Z,22.00
2018-08-17T06:17:31.200Z,22.20
2018-08-17T06:19:58.147Z,22.90
2018-08-17T20:31:09.505Z,24.50
2018-08-17T20:33:36.623Z,23.10
2018-08-17T20:36:03.722Z,23.00
2018-08-17T20:38:31.366Z,23.00
2018-08-17T20:40:59.189Z,23.00
2018-08-17T20:43:26.685Z,23.10
2018-08-17T20:45:53.897Z,23.00
2018-08-17T20:48:21.216Z,23.00
2018-08-17T21:15:24.820Z,22.90
2018-08-17T21:17:52.215Z,22.50
2018-08-17T21:20:19.633Z,22.50
2018-08-17T21:22:47.072Z,22.50
2018-08-17T21:25:14.370Z,22.50
2018-08-17T21:27:41.578Z,22.40
2018-08-17T21:30:09.595Z,22.30
2018-08-17T21:32:37.082Z,22.30
2018-08-17T21:35:04.839Z,22.30
2018-08-17T21:37:32.006Z,22.30
2018-08-17T21:39:59.559Z,22.30
2018-08-17T21:42:26.708Z,22.20
2018-08-17T21:44:54.877Z,22.20
2018-08-17T21:47:22.047Z,22.20
2018-08-17T21:49:49.327Z,22.20
2018-08-17T22:46:41.079Z,22.10
2018-08-17T23:11:27.310Z,21.20
2018-08-17T23:13:54.373Z,21.00
2018-08-17T23:16:21.353Z,21.00
2018-08-17T23:18:48.389Z,20.90
2018-08-17T23:21:15.352Z,20.90
2018-08-17T23:23:42.343Z,20.90
2018-08-17T23:26:09.309Z,20.80
2018-08-17T23:28:36.295Z,20.70
2018-08-17T23:31:03.302Z,20.70
2018-08-17T23:33:30.590Z,20.60
